createdAt,value
2023-01-13T00:01:11.696Z,97222.97
2023-01-13T00:04:13.848Z,97216.88
2023-01-13T00:07:15.523Z,97221.44
2023-01-13T00:10:17.664Z,97217.94
2023-01-13T00:13:26.705Z,97221.44
2023-01-13T00:16:30.090Z,97215.44
2023-01-13T00:19:32.137Z,97205.09
2023-01-13T00:22:35.167Z,97192.66
2023-01-13T00:25:37.125Z,97192.75
2023-01-13T00:28:39.345Z,97198.06
2023-01-13T00:31:42.498Z,97190.28
2023-01-13T00:34:44.403Z,97192.94
2023-01-13T00:37:46.241Z,97188.59
2023-01-13T00:40:55.648Z,97190.44
2023-01-13T00:43:57.607Z,97193.91
2023-01-13T00:47:01.667Z,97181.63
2023-01-13T00:50:03.958Z,97186.19
2023-01-13T00:53:05.904Z,97180.03
2023-01-13T00:56:14.381Z,97186.19
2023-01-13T00:59:16.455Z,97180.88
2023-01-13T01:02:20.438Z,97192.09
2023-01-13T01:05:22.572Z,97193.06
2023-01-13T01:08:24.419Z,97189.34
2023-01-13T01:11:31.055Z,97215.81
2023-01-13T01:14:33.139Z,97201.88
2023-01-13T01:17:36.743Z,97190.19
2023-01-13T01:20:38.738Z,97187.78
2023-01-13T01:23:43.690Z,97207.00
2023-01-13T01:26:45.679Z,97186.00
2023-01-13T01:29:47.566Z,97192.25
2023-01-13T01:32:50.972Z,97175.56
2023-01-13T01:35:53.966Z,97198.06
2023-01-13T01:38:57.842Z,97181.91
2023-01-13T01:42:18.353Z,97185.84
2023-01-13T01:45:22.128Z,97193.81
2023-01-13T01:48:31.115Z,97186.81
2023-01-13T01:51:37.218Z,97191.16
2023-01-13T01:54:47.595Z,97173.44
2023-01-13T01:57:54.906Z,97179.41
2023-01-13T02:00:57.144Z,97189.38
2023-01-13T02:04:05.532Z,97198.38
2023-01-13T02:07:07.937Z,97192.31
2023-01-13T02:10:13.379Z,97198.72
2023-01-13T02:13:15.266Z,97188.09
2023-01-13T02:16:22.171Z,97186.19
2023-01-13T02:19:59.931Z,97196.75
2023-01-13T02:23:53.485Z,97170.19
2023-01-13T02:27:29.644Z,97180.88
2023-01-13T02:30:59.629Z,97187.06
2023-01-13T02:34:11.296Z,97191.25
2023-01-13T02:37:19.248Z,97181.50
2023-01-13T02:40:25.320Z,97187.00
2023-01-13T02:43:51.553Z,97189.81
2023-01-13T02:46:59.652Z,97189.72
2023-01-13T02:50:07.516Z,97188.19
2023-01-13T02:53:16.563Z,97176.91
2023-01-13T02:56:21.199Z,97198.31
2023-01-13T02:59:26.681Z,97195.84
2023-01-13T03:02:30.983Z,97201.06
2023-01-13T03:05:33.891Z,97209.78
2023-01-13T03:08:43.850Z,97195.31
2023-01-13T03:11:54.099Z,97185.53
2023-01-13T03:15:01.611Z,97205.34
2023-01-13T03:18:12.803Z,97199.16
2023-01-13T03:21:24.905Z,97184.97
2023-01-13T03:24:34.373Z,97194.53
2023-01-13T03:27:45.053Z,97181.34
2023-01-13T03:30:53.595Z,97192.22
2023-01-13T03:34:01.552Z,97174.78
2023-01-13T03:37:07.016Z,97194.22
2023-01-13T03:40:14.136Z,97202.09
2023-01-13T03:43:38.947Z,97196.97
2023-01-13T03:46:49.322Z,97169.81
2023-01-13T03:49:57.347Z,97178.63
2023-01-13T03:53:05.358Z,97180.53
2023-01-13T03:56:12.193Z,97188.84
2023-01-13T03:59:17.993Z,97170.34
2023-01-13T04:02:29.577Z,97174.53
2023-01-13T04:05:36.252Z,97171.28
2023-01-13T04:08:45.031Z,97170.28
2023-01-13T04:11:53.207Z,97172.00
2023-01-13T04:14:56.368Z,97178.91
2023-01-13T04:18:08.655Z,97181.50
2023-01-13T04:21:11.602Z,97173.59
2023-01-13T04:24:13.535Z,97179.00
2023-01-13T04:27:15.541Z,97182.78
2023-01-13T04:30:17.922Z,97190.00
2023-01-13T04:33:20.769Z,97191.03
2023-01-13T04:36:30.035Z,97183.84
2023-01-13T04:39:31.845Z,97193.69
2023-01-13T04:42:33.770Z,97183.06
2023-01-13T04:45:35.888Z,97195.38
2023-01-13T04:48:37.457Z,97194.59
2023-01-13T04:51:40.982Z,97198.47
2023-01-13T04:54:43.116Z,97189.88
2023-01-13T04:57:45.191Z,97193.34
2023-01-13T05:00:46.897Z,97191.28
2023-01-13T05:03:48.781Z,97193.25
2023-01-13T05:06:52.044Z,97187.25
2023-01-13T05:09:53.876Z,97189.88
2023-01-13T05:13:14.194Z,97189.56
2023-01-13T05:16:34.418Z,97187.78
2023-01-13T05:19:39.236Z,97180.16
2023-01-13T05:23:01.019Z,97174.16
2023-01-13T05:26:03.058Z,97165.69
2023-01-13T05:29:07.590Z,97168.84
2023-01-13T05:32:09.715Z,97171.84
2023-01-13T05:35:11.500Z,97172.00
2023-01-13T05:38:15.386Z,97172.00
2023-01-13T05:41:35.721Z,97177.47
2023-01-13T05:44:37.821Z,97165.41
2023-01-13T05:47:39.875Z,97173.53
2023-01-13T05:50:41.671Z,97179.69
2023-01-13T05:53:44.752Z,97180.38
2023-01-13T05:56:46.763Z,97186.63
2023-01-13T05:59:48.755Z,97178.81
2023-01-13T06:02:50.696Z,97185.16
2023-01-13T06:05:58.540Z,97177.19
2023-01-13T06:09:01.983Z,97162.63
2023-01-13T06:12:07.399Z,97174.91
2023-01-13T06:15:09.917Z,97175.22
2023-01-13T06:18:11.982Z,97171.63
2023-01-13T06:21:13.583Z,97179.41
2023-01-13T06:24:16.952Z,97161.97
2023-01-13T06:27:18.697Z,97168.03
2023-01-13T06:30:20.746Z,97174.34
2023-01-13T06:33:29.160Z,97161.38
2023-01-13T06:36:35.456Z,97172.47
2023-01-13T06:39:39.908Z,97164.00
2023-01-13T06:43:01.384Z,97158.84
2023-01-13T06:46:03.381Z,97158.38
2023-01-13T06:49:05.379Z,97147.75
2023-01-13T06:52:07.155Z,97155.88
2023-01-13T06:55:11.450Z,97154.31
2023-01-13T06:58:13.310Z,97167.25
2023-01-13T07:01:15.165Z,97161.09
2023-01-13T07:04:17.095Z,97173.69
2023-01-13T07:07:19.639Z,97175.59
2023-01-13T07:10:22.663Z,97179.47
2023-01-13T07:13:42.866Z,97180.06
2023-01-13T07:16:44.864Z,97185.34
2023-01-13T07:19:46.938Z,97189.72
2023-01-13T07:22:53.993Z,97196.13
2023-01-13T07:25:58.056Z,97187.16
2023-01-13T07:29:00.860Z,97192.28
2023-01-13T07:32:03.022Z,97195.88
2023-01-13T07:35:05.624Z,97209.84
2023-01-13T07:38:08.289Z,97210.69
2023-01-13T07:41:31.849Z,97210.59
2023-01-13T07:44:34.496Z,97223.84
2023-01-13T07:47:36.316Z,97214.19
2023-01-13T07:50:38.359Z,97212.31
2023-01-13T07:53:40.234Z,97232.03
2023-01-13T07:56:43.452Z,97225.66
2023-01-13T07:59:45.235Z,97236.84
2023-01-13T08:02:47.238Z,97224.63
2023-01-13T08:05:49.164Z,97231.63
2023-01-13T08:08:51.296Z,97239.00
2023-01-13T08:12:14.100Z,97243.00
2023-01-13T08:15:16.466Z,97232.34
2023-01-13T08:18:21.358Z,97237.78
2023-01-13T08:21:23.066Z,97236.09
2023-01-13T08:24:25.003Z,97242.25
2023-01-13T08:27:28.563Z,97238.81
2023-01-13T08:30:30.791Z,97239.94
2023-01-13T08:33:33.388Z,97235.47
2023-01-13T08:36:35.237Z,97249.72
2023-01-13T08:39:37.058Z,97253.19
2023-01-13T08:42:40.535Z,97256.59
2023-01-13T08:45:42.714Z,97256.59
2023-01-13T08:48:44.451Z,97259.34
2023-01-13T08:51:46.563Z,97254.88
2023-01-13T08:54:49.952Z,97254.13
2023-01-13T08:57:56.100Z,97266.19
2023-01-13T09:01:05.026Z,97267.38
2023-01-13T09:04:08.380Z,97270.03
2023-01-13T09:07:11.196Z,97262.97
2023-01-13T09:10:12.948Z,97281.13
2023-01-13T09:13:17.154Z,97279.34
2023-01-13T09:16:18.999Z,97261.72
2023-01-13T09:19:24.055Z,97281.06
2023-01-13T09:22:27.271Z,97265.94
2023-01-13T09:25:29.134Z,97259.72
2023-01-13T09:28:33.536Z,97261.25
2023-01-13T09:31:35.480Z,97253.63
2023-01-13T09:34:55.827Z,97269.22
2023-01-13T09:37:57.691Z,97266.47
2023-01-13T09:40:59.971Z,97257.97
2023-01-13T09:44:04.603Z,97269.88
2023-01-13T09:47:15.190Z,97278.88
2023-01-13T09:50:30.032Z,97283.06
2023-01-13T09:53:37.435Z,97283.06
2023-01-13T09:56:39.299Z,97284.34
2023-01-13T09:59:43.005Z,97283.22
2023-01-13T10:03:04.909Z,97294.53
2023-01-13T10:06:15.723Z,97262.09
2023-01-13T10:09:23.889Z,97293.53
2023-01-13T10:12:45.256Z,97262.47
2023-01-13T10:15:57.018Z,97283.88
2023-01-13T10:19:06.124Z,97272.31
2023-01-13T10:22:34.237Z,97272.31
2023-01-13T10:25:58.839Z,97282.06
2023-01-13T10:29:00.724Z,97296.19
2023-01-13T10:32:04.728Z,97284.72
2023-01-13T10:35:07.279Z,97284.84
2023-01-13T10:38:16.662Z,97296.31
2023-01-13T10:41:23.902Z,97298.06
2023-01-13T10:44:25.662Z,97284.84
2023-01-13T10:47:30.885Z,97286.91
2023-01-13T10:50:35.498Z,97267.59
2023-01-13T10:53:46.996Z,97279.91
2023-01-13T10:56:50.256Z,97292.22
2023-01-13T10:59:53.149Z,97296.31
2023-01-13T11:03:24.766Z,97292.75
2023-01-13T11:06:29.926Z,97294.59
2023-01-13T11:09:33.107Z,97294.59
2023-01-13T11:12:42.195Z,97296.31
2023-01-13T11:15:50.276Z,97307.94
2023-01-13T11:19:11.782Z,97307.84
2023-01-13T11:22:19.445Z,97308.66
2023-01-13T11:25:31.575Z,97309.44
2023-01-13T11:28:41.132Z,97319.09
2023-01-13T11:31:48.634Z,97325.09
2023-01-13T11:34:57.119Z,97323.38
2023-01-13T11:38:09.007Z,97311.16
2023-01-13T11:41:21.114Z,97321.66
2023-01-13T11:44:30.395Z,97318.69
2023-01-13T11:47:33.423Z,97318.84
2023-01-13T11:50:42.296Z,97308.16
2023-01-13T11:54:00.216Z,97319.56
2023-01-13T11:57:34.016Z,97314.00
2023-01-13T12:01:05.442Z,97299.81
2023-01-13T12:04:26.016Z,97315.47
2023-01-13T12:07:41.165Z,97291.59
2023-01-13T12:11:01.378Z,97303.94
2023-01-13T12:14:16.620Z,97303.00
2023-01-13T12:17:27.073Z,97318.28
2023-01-13T12:20:39.443Z,97314.69
2023-01-13T12:23:46.339Z,97327.19
2023-01-13T12:26:53.248Z,97310.50
2023-01-13T12:29:59.725Z,97318.28
2023-01-13T12:33:13.015Z,97297.94
2023-01-13T12:36:22.731Z,97277.44
2023-01-13T12:39:37.501Z,97302.53
2023-01-13T12:43:07.579Z,97294.97
2023-01-13T12:46:44.641Z,97294.75
2023-01-13T12:49:47.240Z,97283.13
2023-01-13T12:52:49.832Z,97298.28
2023-01-13T12:55:53.246Z,97293.81
2023-01-13T12:59:48.648Z,97299.13
2023-01-13T13:03:23.740Z,97314.94
2023-01-13T13:06:31.063Z,97320.97
2023-01-13T13:09:38.376Z,97314.44
2023-01-13T13:13:18.253Z,97307.56
2023-01-13T13:16:54.821Z,97301.56
2023-01-13T13:19:58.158Z,97308.88
2023-01-13T13:23:00.349Z,97308.03
2023-01-13T13:26:13.019Z,97296.44
2023-01-13T13:29:46.942Z,97303.28
2023-01-13T13:33:10.498Z,97304.91
2023-01-13T13:36:34.181Z,97328.75
2023-01-13T13:39:55.301Z,97352.31
2023-01-13T13:43:16.731Z,97341.63
2023-01-13T13:46:48.124Z,97360.13
2023-01-13T13:49:56.144Z,97363.13
2023-01-13T13:53:05.272Z,97364.13
2023-01-13T13:56:17.028Z,97374.97
2023-01-13T13:59:21.656Z,97368.47
2023-01-13T14:02:29.659Z,97389.25
2023-01-13T14:05:33.672Z,97381.56
2023-01-13T14:08:38.304Z,97404.94
2023-01-13T14:11:41.404Z,97405.66
2023-01-13T14:14:44.723Z,97413.47
2023-01-13T14:17:48.266Z,97425.78
2023-01-13T14:20:54.749Z,97416.25
2023-01-13T14:24:00.499Z,97425.19
2023-01-13T14:27:11.022Z,97437.66
2023-01-13T14:30:17.429Z,97427.16
2023-01-13T14:33:23.616Z,97421.00
2023-01-13T14:36:36.770Z,97423.69
2023-01-13T14:39:41.407Z,97422.97
2023-01-13T14:42:43.278Z,97427.56
2023-01-13T14:45:56.523Z,97442.72
2023-01-13T14:49:01.413Z,97450.03
2023-01-13T14:52:13.985Z,97464.47
2023-01-13T14:55:24.249Z,97444.72
2023-01-13T14:58:30.893Z,97462.47
2023-01-13T15:01:36.592Z,97465.50
2023-01-13T15:04:39.959Z,97495.47
2023-01-13T15:07:48.752Z,97487.47
2023-01-13T15:10:54.574Z,97486.63
2023-01-13T15:14:01.376Z,97488.31
2023-01-13T15:17:04.317Z,97497.94
2023-01-13T15:20:13.914Z,97479.19
2023-01-13T15:23:15.750Z,97495.47
2023-01-13T15:26:20.961Z,97507.59
2023-01-13T15:29:24.305Z,97500.50
2023-01-13T15:32:26.206Z,97498.06
2023-01-13T15:35:29.566Z,97516.19
2023-01-13T15:38:31.277Z,97525.97
2023-01-13T15:41:52.053Z,97532.84
2023-01-13T15:45:12.334Z,97536.22
2023-01-13T15:48:14.217Z,97541.53
2023-01-13T15:51:17.650Z,97541.59
2023-01-13T15:54:22.952Z,97552.03
2023-01-13T15:57:26.442Z,97562.63
2023-01-13T16:00:28.679Z,97560.91
2023-01-13T16:03:30.605Z,97561.38
2023-01-13T16:06:36.089Z,97548.41
2023-01-13T16:09:37.870Z,97561.84
2023-01-13T16:12:39.769Z,97567.31
2023-01-13T16:15:43.901Z,97575.25
2023-01-13T16:18:46.076Z,97584.94
2023-01-13T16:21:49.274Z,97574.28
2023-01-13T16:24:51.296Z,97578.72
2023-01-13T16:27:54.427Z,97583.81
2023-01-13T16:30:56.660Z,97579.38
2023-01-13T16:33:58.888Z,97573.94
2023-01-13T16:37:02.040Z,97567.84
2023-01-13T16:40:04.304Z,97586.53
2023-01-13T16:43:06.906Z,97587.84
2023-01-13T16:46:17.627Z,97593.06
2023-01-13T16:49:19.410Z,97601.91
2023-01-13T16:52:22.686Z,97602.78
2023-01-13T16:55:25.482Z,97597.47
2023-01-13T16:58:28.176Z,97593.84
2023-01-13T17:01:32.196Z,97619.34
2023-01-13T17:04:34.350Z,97616.06
2023-01-13T17:07:37.597Z,97621.28
2023-01-13T17:10:39.412Z,97632.50
2023-01-13T17:13:42.149Z,97627.72
2023-01-13T17:16:44.425Z,97624.09
2023-01-13T17:19:46.287Z,97623.28
2023-01-13T17:22:57.696Z,97622.31
2023-01-13T17:25:59.960Z,97627.59
2023-01-13T17:29:02.049Z,97629.66
2023-01-13T17:32:04.757Z,97639.38
2023-01-13T17:35:07.740Z,97630.31
2023-01-13T17:38:11.411Z,97641.09
2023-01-13T17:41:13.605Z,97663.19
2023-01-13T17:44:15.626Z,97682.63
2023-01-13T17:47:17.791Z,97648.22
2023-01-13T17:50:19.628Z,97654.31
2023-01-13T17:53:22.930Z,97662.38
2023-01-13T17:56:28.583Z,97666.63
2023-01-13T17:59:30.521Z,97671.13
2023-01-13T18:02:33.447Z,97654.63
2023-01-13T18:05:36.662Z,97683.56
2023-01-13T18:08:41.799Z,97665.22
2023-01-13T18:11:43.909Z,97692.09
2023-01-13T18:14:45.897Z,97702.94
2023-01-13T18:17:48.810Z,97698.75
2023-01-13T18:21:11.477Z,97704.88
2023-01-13T18:24:35.277Z,97721.59
2023-01-13T18:27:40.352Z,97715.47
2023-01-13T18:30:42.239Z,97715.47
2023-01-13T18:33:44.148Z,97715.47
2023-01-13T18:36:46.103Z,97719.91
2023-01-13T18:39:49.434Z,97722.19
2023-01-13T18:42:51.461Z,97734.34
2023-01-13T18:45:53.150Z,97726.25
2023-01-13T18:48:57.099Z,97727.13
2023-01-13T18:51:58.904Z,97737.78
2023-01-13T18:55:02.122Z,97751.78
2023-01-13T18:58:04.456Z,97729.59
2023-01-13T19:01:06.966Z,97746.22
2023-01-13T19:04:15.868Z,97762.22
2023-01-13T19:07:23.500Z,97755.94
2023-01-13T19:10:32.018Z,97758.50
2023-01-13T19:13:35.564Z,97766.31
2023-01-13T19:16:37.302Z,97766.94
2023-01-13T19:19:40.952Z,97762.31
2023-01-13T19:22:42.828Z,97763.31
2023-01-13T19:25:45.973Z,97772.81
2023-01-13T19:28:48.672Z,97779.81
2023-01-13T19:31:52.420Z,97795.56
2023-01-13T19:34:56.248Z,97776.03
2023-01-13T19:37:57.974Z,97791.06
2023-01-13T19:41:05.828Z,97804.22
2023-01-13T19:44:29.939Z,97802.38
2023-01-13T19:47:34.555Z,97788.34
2023-01-13T19:50:38.665Z,97805.66
2023-01-13T19:53:41.013Z,97821.75
2023-01-13T19:56:44.535Z,97826.03
2023-01-13T19:59:46.381Z,97845.44
2023-01-13T20:02:49.551Z,97819.94
2023-01-13T20:05:52.085Z,97841.28
2023-01-13T20:08:54.069Z,97840.50
2023-01-13T20:11:57.472Z,97848.63
2023-01-13T20:14:59.303Z,97857.53
2023-01-13T20:18:01.118Z,97865.53
2023-01-13T20:21:03.512Z,97867.66
2023-01-13T20:24:06.661Z,97873.03
2023-01-13T20:27:09.887Z,97872.34
2023-01-13T20:30:15.508Z,97876.78
2023-01-13T20:33:17.273Z,97870.72
2023-01-13T20:36:27.896Z,97865.34
2023-01-13T20:39:29.765Z,97876.47
2023-01-13T20:42:42.471Z,97873.94
2023-01-13T20:45:44.439Z,97878.25
2023-01-13T20:48:46.498Z,97877.31
2023-01-13T20:51:48.395Z,97888.63
2023-01-13T20:54:50.513Z,97895.84
2023-01-13T20:57:53.450Z,97910.00
2023-01-13T21:00:58.315Z,97900.19
2023-01-13T21:04:00.620Z,97920.31
2023-01-13T21:07:02.531Z,97928.25
2023-01-13T21:10:05.040Z,97933.44
2023-01-13T21:13:27.358Z,97941.38
2023-01-13T21:16:29.265Z,97934.34
2023-01-13T21:19:31.313Z,97949.44
2023-01-13T21:22:33.176Z,97935.94
2023-01-13T21:25:37.277Z,97956.19
2023-01-13T21:28:40.611Z,97957.97
2023-01-13T21:31:42.578Z,97951.09
2023-01-13T21:34:44.323Z,97965.19
2023-01-13T21:37:46.137Z,97963.63
2023-01-13T21:40:56.129Z,97982.09
2023-01-13T21:44:17.663Z,97979.47
2023-01-13T21:47:38.665Z,97980.38
2023-01-13T21:50:40.648Z,97985.66
2023-01-13T21:53:42.398Z,97992.56
2023-01-13T21:56:44.700Z,97976.81
2023-01-13T21:59:49.299Z,97997.72
2023-01-13T22:02:51.737Z,97990.50
2023-01-13T22:05:55.714Z,97989.53
2023-01-13T22:09:01.329Z,97988.50
2023-01-13T22:12:06.209Z,98006.13
2023-01-13T22:15:12.593Z,97994.44
2023-01-13T22:18:14.426Z,97996.97
2023-01-13T22:21:17.647Z,98000.44
2023-01-13T22:24:19.472Z,98011.13
2023-01-13T22:27:22.973Z,98017.94
2023-01-13T22:30:31.749Z,98014.47
2023-01-13T22:33:33.501Z,98021.38
2023-01-13T22:36:35.210Z,98018.06
2023-01-13T22:39:37.071Z,98023.28
2023-01-13T22:42:39.526Z,98031.16
2023-01-13T22:45:42.776Z,98035.53
2023-01-13T22:48:46.875Z,98047.03
2023-01-13T22:51:48.837Z,98054.34
2023-01-13T22:54:50.681Z,98051.75
2023-01-13T22:57:52.688Z,98053.72
2023-01-13T23:00:56.294Z,98052.13
2023-01-13T23:03:58.994Z,98054.44
2023-01-13T23:07:00.985Z,98049.91
2023-01-13T23:10:02.879Z,98054.34
2023-01-13T23:13:04.886Z,98078.09
2023-01-13T23:16:10.835Z,98083.25
2023-01-13T23:19:15.298Z,98064.06
2023-01-13T23:22:17.413Z,98076.97
2023-01-13T23:25:18.960Z,98097.22
2023-01-13T23:28:22.137Z,98076.16
2023-01-13T23:31:25.263Z,98072.81
2023-01-13T23:34:27.122Z,98089.28
2023-01-13T23:37:29.022Z,98076.91
2023-01-13T23:40:30.789Z,98091.94
2023-01-13T23:43:33.105Z,98076.16
2023-01-13T23:46:36.503Z,98083.31
2023-01-13T23:49:38.902Z,98087.78
2023-01-13T23:52:40.768Z,98085.03
2023-01-13T23:55:42.647Z,98093.91
2023-01-13T23:58:45.212Z,98092.25
